Time;durP1;ratioP1;P1;durP2;ratioP2;P2;SDS_P1;SDS_P2;PMS_P1;PMS_P2;Temp;Humidity;BMP_temperature;BMP_pressure;BME280_temperature;BME280_humidity;BME280_pressure;Samples;Min_cycle;Max_cycle;Signal;HPM_P1;HPM_P2
2023/09/13 00:02:19;;;;;;;16.90;15.10;;;;;;;19.67;100.00;101249.59;5151654;27;20019;-36
2023/09/13 00:04:44;;;;;;;17.63;15.88;;;;;;;19.67;100.00;101266.06;5151816;27;20026;-37
2023/09/13 00:07:09;;;;;;;16.70;15.00;;;;;;;19.72;100.00;101262.47;5151512;27;20042;-37
2023/09/13 00:09:35;;;;;;;18.58;16.08;;;;;;;19.75;100.00;101250.91;5143338;27;20320;-37
2023/09/13 00:12:00;;;;;;;18.08;15.05;;;;;;;19.69;100.00;101246.56;5137894;27;20023;-37
2023/09/13 00:14:25;;;;;;;17.70;15.88;;;;;;;19.72;100.00;101251.50;5137207;27;20045;-36
2023/09/13 00:16:51;;;;;;;16.48;14.43;;;;;;;19.74;100.00;101247.34;5137949;27;20027;-37
2023/09/13 00:19:16;;;;;;;19.55;17.17;;;;;;;19.71;100.00;101261.63;5137414;27;20499;-36
2023/09/13 00:21:42;;;;;;;17.27;15.60;;;;;;;19.70;100.00;101243.53;5137973;27;20034;-37
2023/09/13 00:24:09;;;;;;;18.10;16.08;;;;;;;19.76;100.00;101252.53;5137948;27;20019;-37
2023/09/13 00:26:35;;;;;;;19.98;15.80;;;;;;;19.70;100.00;101251.75;5137617;27;20109;-36
2023/09/13 00:29:00;;;;;;;17.48;15.68;;;;;;;19.75;100.00;101257.22;5137294;27;20130;-37
2023/09/13 00:31:26;;;;;;;18.45;15.63;;;;;;;19.70;100.00;101246.25;5137820;27;20022;-36
2023/09/13 00:33:51;;;;;;;16.52;14.75;;;;;;;19.71;100.00;101261.63;5137196;27;20447;-36
2023/09/13 00:36:16;;;;;;;19.70;16.15;;;;;;;19.67;100.00;101259.75;5137160;27;20019;-36
2023/09/13 00:38:42;;;;;;;16.98;15.02;;;;;;;19.70;100.00;101257.22;5136831;27;20019;-37
2023/09/13 00:41:07;;;;;;;17.50;15.70;;;;;;;19.62;100.00;101249.63;5136964;27;20019;-36
2023/09/13 00:43:33;;;;;;;19.67;15.60;;;;;;;19.63;100.00;101256.75;5137046;27;20054;-37
2023/09/13 00:45:58;;;;;;;18.70;15.88;;;;;;;19.57;100.00;101249.59;5136583;27;20103;-37
2023/09/13 00:48:24;;;;;;;17.23;15.50;;;;;;;19.60;100.00;101248.25;5136892;27;20023;-36
2023/09/13 00:50:50;;;;;;;17.92;15.93;;;;;;;19.55;100.00;101251.78;5137350;27;20065;-37
2023/09/13 00:53:16;;;;;;;16.55;14.85;;;;;;;19.60;100.00;101256.47;5136549;27;20530;-36
2023/09/13 00:55:43;;;;;;;16.50;14.80;;;;;;;19.44;100.00;101255.69;5136760;27;20015;-37
2023/09/13 00:58:09;;;;;;;17.60;15.90;;;;;;;19.41;100.00;101234.28;5137307;27;20054;-36
2023/09/13 01:00:35;;;;;;;16.45;14.88;;;;;;;19.57;100.00;101252.34;5136963;27;20022;-37
2023/09/13 01:03:04;;;;;;;17.30;15.57;;;;;;;19.52;100.00;101263.31;5136695;27;20023;-37
2023/09/13 01:05:29;;;;;;;16.92;15.30;;;;;;;19.42;100.00;101244.16;5137099;27;20455;-37
2023/09/13 01:07:55;;;;;;;16.23;14.63;;;;;;;19.51;100.00;101251.53;5136762;27;20072;-37
2023/09/13 01:10:20;;;;;;;16.65;14.95;;;;;;;19.40;100.00;101244.44;5136452;27;20464;-37
2023/09/13 01:12:46;;;;;;;17.88;15.98;;;;;;;19.37;100.00;101245.00;5137248;27;20487;-36
2023/09/13 01:15:12;;;;;;;17.60;15.90;;;;;;;19.29;100.00;101249.16;5136363;27;20494;-36
2023/09/13 01:17:57;;;;;;;19.60;16.75;;;;;;;19.26;100.00;101241.47;5136195;27;20466;-36
2023/09/13 01:20:54;;;;;;;18.85;16.15;;;;;;;19.25;100.00;101244.50;5136143;27;20064;-37
2023/09/13 01:23:26;;;;;;;21.13;17.88;;;;;;;19.20;100.00;101239.03;5136732;27;20064;-36
2023/09/13 01:26:21;;;;;;;19.63;17.60;;;;;;;19.25;100.00;101248.06;5136397;27;20019;-36
2023/09/13 01:28:50;;;;;;;21.27;18.27;;;;;;;19.18;100.00;101231.09;5136534;27;20041;-37
2023/09/13 01:31:17;;;;;;;21.23;18.83;;;;;;;19.23;100.00;101244.81;5136045;27;20019;-37
2023/09/13 01:33:44;;;;;;;19.98;17.85;;;;;;;19.15;100.00;101247.28;5136518;27;20084;-36
2023/09/13 01:36:10;;;;;;;20.92;18.73;;;;;;;19.16;100.00;101248.91;5136198;27;20043;-36
2023/09/13 01:38:35;;;;;;;;;;;;;;;19.32;100.00;101246.94;5136567;27;20167;-36
2023/09/13 01:41:13;;;;;;;21.85;19.48;;;;;;;19.22;100.00;101245.06;5135563;27;20369;-37
2023/09/13 01:43:40;;;;;;;25.35;21.52;;;;;;;19.20;100.00;101250.81;5135492;27;20034;-36
2023/09/13 01:46:06;;;;;;;25.75;23.02;;;;;;;19.22;100.00;101256.84;5135680;27;20111;-36
2023/09/13 01:48:32;;;;;;;26.38;23.55;;;;;;;19.22;100.00;101256.03;5135738;27;20038;-37
2023/09/13 01:50:59;;;;;;;26.60;23.20;;;;;;;19.23;100.00;101254.94;5135665;27;20019;-36
2023/09/13 01:53:24;;;;;;;29.80;24.30;;;;;;;19.21;100.00;101268.91;5136239;27;20062;-37
2023/09/13 01:55:50;;;;;;;;;;;;;;;19.32;100.00;101266.13;5136821;27;20023;-37
2023/09/13 01:58:15;;;;;;;30.17;23.67;;;;;;;19.21;100.00;101265.34;5135757;27;19912;-36
2023/09/13 02:00:41;;;;;;;29.38;24.67;;;;;;;19.21;100.00;101266.16;5135443;27;20809;-36
2023/09/13 02:03:06;;;;;;;27.77;24.63;;;;;;;19.22;100.00;101273.28;5135400;27;20027;-36
2023/09/13 02:05:32;;;;;;;27.25;23.60;;;;;;;19.24;100.00;101265.63;5135097;27;20034;-36
2023/09/13 02:07:57;;;;;;;28.63;23.75;;;;;;;19.19;100.00;101270.31;5136185;27;20093;-36
2023/09/13 02:10:22;;;;;;;27.65;24.67;;;;;;;19.20;100.00;101272.75;5135609;27;20033;-36
2023/09/13 02:12:48;;;;;;;28.27;23.60;;;;;;;19.15;100.00;101274.69;5135825;27;20041;-36
2023/09/13 02:15:13;;;;;;;27.02;23.13;;;;;;;19.11;100.00;101279.09;5135201;27;20092;-36
2023/09/13 02:17:38;;;;;;;27.17;23.25;;;;;;;19.13;100.00;101288.69;5135387;27;20023;-36
2023/09/13 02:20:05;;;;;;;26.95;21.85;;;;;;;19.08;100.00;101283.22;5135064;27;20019;-37
2023/09/13 02:22:30;;;;;;;28.48;22.50;;;;;;;19.09;100.00;101286.78;5135602;27;20046;-37
2023/09/13 02:24:56;;;;;;;;;;;;;;;19.17;100.00;101283.44;5135235;27;20466;-37
2023/09/13 02:27:21;;;;;;;25.03;20.13;;;;;;;19.04;100.00;101285.69;5135302;27;20347;-36
2023/09/13 02:29:46;;;;;;;;;;;;;;;19.11;100.00;101293.59;5135057;27;20272;-37
2023/09/13 02:32:12;;;;;;;29.97;21.97;;;;;;;18.95;100.00;101287.34;5135014;27;19957;-36
2023/09/13 02:34:37;;;;;;;;;;;;;;;19.07;100.00;101288.97;5135363;27;20304;-36
2023/09/13 02:37:02;;;;;;;24.63;21.53;;;;;;;18.87;100.00;101295.28;5135101;27;20261;-36
2023/09/13 02:39:31;;;;;;;;;;;;;;;19.00;100.00;101298.28;5135565;27;20691;-36
2023/09/13 02:41:57;;;;;;;25.38;21.90;;;;;;;18.89;100.00;101299.41;5134535;27;19904;-36
2023/09/13 02:44:22;;;;;;;;;;;;;;;18.97;100.00;101298.00;5134877;27;20027;-36
2023/09/13 02:46:47;;;;;;;27.38;23.17;;;;;;;18.75;100.00;101290.94;5135033;27;19907;-36
2023/09/13 02:49:13;;;;;;;29.75;24.83;;;;;;;18.76;100.00;101308.19;5134635;27;20027;-36
2023/09/13 02:51:38;;;;;;;30.90;24.85;;;;;;;18.75;100.00;101304.63;5134402;27;20020;-37
2023/09/13 02:54:04;;;;;;;;;;;;;;;18.90;100.00;101305.72;5134757;27;20024;-37
2023/09/13 02:56:29;;;;;;;28.05;23.83;;;;;;;18.74;100.00;101303.00;5135224;27;19907;-36
2023/09/13 02:58:55;;;;;;;;;;;;;;;18.84;100.00;101307.63;5135760;28;20133;-36
2023/09/13 03:01:22;;;;;;;28.98;24.65;;;;;;;18.68;100.00;101308.69;5134929;28;19961;-36
2023/09/13 03:03:47;;;;;;;28.25;25.10;;;;;;;18.67;100.00;101298.84;5135357;27;20332;-36
2023/09/13 03:06:13;;;;;;;;;;;;;;;18.77;100.00;101312.56;5135016;27;20030;-36
2023/09/13 03:08:38;;;;;;;29.45;24.75;;;;;;;18.59;100.00;101311.13;5134832;27;19907;-36
2023/09/13 03:11:17;;;;;;;29.30;26.13;;;;;;;18.46;100.00;101306.22;5134761;27;20071;-36
2023/09/13 03:13:43;;;;;;;30.88;26.20;;;;;;;18.50;100.00;101312.81;5134758;27;20023;-36
2023/09/13 03:16:13;;;;;;;32.38;27.60;;;;;;;18.55;100.00;101312.00;5134136;27;20023;-36
2023/09/13 03:18:39;;;;;;;35.03;28.17;;;;;;;18.50;100.00;101312.81;5134897;27;20023;-36
2023/09/13 03:21:08;;;;;;;;;;;;;;;18.61;100.00;101314.44;5134530;27;20068;-36
2023/09/13 03:23:36;;;;;;;34.25;27.90;;;;;;;18.50;100.00;101310.06;5134701;27;20388;-36
2023/09/13 03:26:01;;;;;;;36.70;29.67;;;;;;;18.54;100.00;101305.66;5134939;28;20107;-36
2023/09/13 03:28:26;;;;;;;;;;;;;;;18.63;100.00;101306.78;5135137;27;20051;-36
2023/09/13 03:30:52;;;;;;;37.70;31.23;;;;;;;18.53;100.00;101306.75;5134261;28;19958;-36
2023/09/13 03:33:17;;;;;;;36.88;31.55;;;;;;;18.57;100.00;101313.34;5133871;28;20019;-36
2023/09/13 03:35:42;;;;;;;42.40;31.55;;;;;;;18.57;100.00;101318.00;5134221;28;20075;-36
2023/09/13 03:38:08;;;;;;;;;;;;;;;18.63;100.00;101317.72;5134947;27;20031;-36
2023/09/13 03:40:33;;;;;;;43.07;32.50;;;;;;;18.56;100.00;101328.13;5134960;28;19914;-36
2023/09/13 03:42:58;;;;;;;;;;;;;;;18.64;100.00;101322.13;5134429;27;20280;-36
2023/09/13 03:45:23;;;;;;;40.63;32.73;;;;;;;18.53;100.00;101323.19;5137289;27;19965;-36
2023/09/13 03:47:49;;;;;;;;;;;;;;;18.60;100.00;101317.47;5139118;27;20261;-36
2023/09/13 03:50:14;;;;;;;41.20;32.77;;;;;;;18.53;100.00;101317.72;5138002;27;19914;-36
2023/09/13 03:52:39;;;;;;;;;;;;;;;18.63;100.00;101316.91;5138667;27;20253;-36
2023/09/13 03:55:06;;;;;;;38.23;30.90;;;;;;;18.51;100.00;101312.53;5137602;27;19907;-36
2023/09/13 03:57:31;;;;;;;39.17;31.30;;;;;;;18.55;100.00;101321.03;5137599;27;20277;-36
2023/09/13 03:59:57;;;;;;;;;;;;;;;18.62;100.00;101318.00;5138527;27;20051;-36
2023/09/13 04:02:22;;;;;;;36.17;29.95;;;;;;;18.55;100.00;101320.22;5137782;27;19908;-36
2023/09/13 04:04:47;;;;;;;40.58;31.60;;;;;;;18.43;100.00;101326.75;5138264;27;20064;-36
2023/09/13 04:07:13;;;;;;;38.42;29.80;;;;;;;18.50;100.00;101321.03;5137647;27;20424;-36
2023/09/13 04:09:39;;;;;;;40.70;31.02;;;;;;;18.45;100.00;101315.53;5138158;27;20022;-36
2023/09/13 04:12:04;;;;;;;38.17;30.20;;;;;;;18.47;100.00;101322.38;5137388;27;20080;-37
2023/09/13 04:14:30;;;;;;;;;;;;;;;18.57;100.00;101318.00;5138010;27;20029;-36
2023/09/13 04:16:55;;;;;;;37.65;27.90;;;;;;;18.52;100.00;101321.56;5137975;27;19903;-37
2023/09/13 04:19:20;;;;;;;36.83;29.52;;;;;;;18.46;100.00;101311.69;5137703;27;20339;-36
2023/09/13 04:21:45;;;;;;;41.95;29.50;;;;;;;18.48;100.00;101314.97;5137400;27;20027;-36
2023/09/13 04:24:11;;;;;;;;;;;;;;;18.59;100.00;101327.56;5137555;27;20015;-36
2023/09/13 04:26:36;;;;;;;40.05;30.85;;;;;;;18.51;100.00;101322.66;5138174;27;19909;-36
2023/09/13 04:29:02;;;;;;;37.85;30.65;;;;;;;18.46;100.00;101318.00;5137009;27;20098;-36
2023/09/13 04:31:28;;;;;;;42.53;31.73;;;;;;;18.41;100.00;101322.66;5138051;27;20050;-37
2023/09/13 04:33:54;;;;;;;;;;;;;;;18.53;100.00;101325.94;5137318;27;20090;-36
2023/09/13 04:36:19;;;;;;;44.20;32.22;;;;;;;18.45;100.00;101324.56;5137267;27;19904;-36
2023/09/13 04:38:47;;;;;;;41.15;32.63;;;;;;;18.42;100.00;101321.56;5136722;27;20027;-36
2023/09/13 04:41:14;;;;;;;40.45;29.65;;;;;;;18.44;100.00;101328.38;5136404;27;20182;-36
2023/09/13 04:43:40;;;;;;;45.25;32.83;;;;;;;18.37;100.00;101324.28;5137544;27;20023;-36
2023/09/13 04:46:06;;;;;;;41.33;32.30;;;;;;;18.38;100.00;101317.72;5136894;27;20034;-36
2023/09/13 04:48:32;;;;;;;39.58;32.85;;;;;;;18.41;100.00;101328.94;5137165;27;20053;-36
2023/09/13 04:50:57;;;;;;;;;;;;;;;18.51;100.00;101330.88;5137006;27;20054;-36
2023/09/13 04:53:22;;;;;;;40.50;31.13;;;;;;;18.42;100.00;101325.09;5136763;27;19910;-36
2023/09/13 04:55:47;;;;;;;;;;;;;;;18.51;100.00;101333.63;5136785;27;20269;-36
2023/09/13 04:58:13;;;;;;;38.23;30.53;;;;;;;18.44;100.00;101324.81;5136361;27;20403;-37
2023/09/13 05:00:38;;;;;;;;;;;;;;;18.51;100.00;101333.63;5137387;27;20260;-36
2023/09/13 05:03:03;;;;;;;37.08;29.23;;;;;;;18.44;100.00;101341.25;5136586;27;19907;-36
2023/09/13 05:05:29;;;;;;;37.55;30.88;;;;;;;18.42;100.00;101343.44;5136196;27;20068;-36
2023/09/13 05:07:54;;;;;;;43.25;31.25;;;;;;;18.43;100.00;101339.63;5136251;27;20041;-36
2023/09/13 05:10:20;;;;;;;;;;;;;;;18.51;100.00;101341.84;5136867;27;20102;-36
2023/09/13 05:12:48;;;;;;;38.33;29.88;;;;;;;18.45;100.00;101354.69;5137273;27;20250;-36
2023/09/13 05:15:13;;;;;;;39.85;31.98;;;;;;;18.43;100.00;101356.88;5136258;27;20064;-36
2023/09/13 05:17:38;;;;;;;;;;;;;;;18.52;100.00;101357.16;5137199;27;20117;-36
2023/09/13 05:20:04;;;;;;;39.40;30.40;;;;;;;18.27;100.00;101327.81;5136232;27;20277;-36
2023/09/13 05:22:30;;;;;;;40.35;30.52;;;;;;;18.31;100.00;101339.06;5136128;27;20256;-36
2023/09/13 05:24:55;;;;;;;;;;;;;;;18.47;100.00;101349.75;5136455;27;20025;-36
2023/09/13 05:27:20;;;;;;;36.37;30.33;;;;;;;18.36;100.00;101344.53;5136037;27;19961;-36
2023/09/13 05:29:47;;;;;;;40.00;30.83;;;;;;;18.33;100.00;101345.91;5136517;27;20050;-36
2023/09/13 05:32:13;;;;;;;38.60;30.95;;;;;;;18.29;100.00;101344.78;5136186;27;20027;-37
2023/09/13 05:34:38;;;;;;;;;;;;;;;18.41;100.00;101347.28;5136256;27;20019;-36
2023/09/13 05:37:03;;;;;;;40.97;30.73;;;;;;;18.31;100.00;101339.06;5136051;27;19907;-36
2023/09/13 05:39:29;;;;;;;40.40;31.65;;;;;;;18.21;100.00;101342.59;5136115;27;20389;-36
2023/09/13 05:41:55;;;;;;;;;;;;;;;18.40;100.00;101362.91;5136548;27;20037;-36
2023/09/13 05:44:23;;;;;;;38.53;29.53;;;;;;;18.28;100.00;101345.88;5136237;27;19903;-36
2023/09/13 05:46:48;;;;;;;37.58;30.52;;;;;;;18.19;100.00;101352.97;5135603;27;20020;-36
2023/09/13 05:49:13;;;;;;;;;;;;;;;18.35;100.00;101360.16;5135807;27;20026;-36
2023/09/13 05:51:40;;;;;;;36.88;29.15;;;;;;;18.32;100.00;101370.81;5135306;27;20363;-36
2023/09/13 05:54:05;;;;;;;35.45;29.55;;;;;;;18.30;100.00;101372.97;5135815;27;20095;-37
2023/09/13 05:56:31;;;;;;;;;;;;;;;18.39;100.00;101374.91;5135916;27;20097;-37
2023/09/13 05:58:56;;;;;;;34.63;28.87;;;;;;;18.32;100.00;101382.59;5135752;27;19912;-37
2023/09/13 06:01:22;;;;;;;;;;;;;;;18.41;100.00;101388.38;5135853;27;20264;-37
2023/09/13 06:03:48;;;;;;;32.97;27.20;;;;;;;18.33;100.00;101378.75;5135651;27;19914;-37
2023/09/13 06:06:13;;;;;;;;;;;;;;;18.48;100.00;101387.00;5135694;27;20027;-37
2023/09/13 06:08:38;;;;;;;32.45;27.05;;;;;;;18.43;100.00;101392.47;5135552;27;19952;-37
2023/09/13 06:11:04;;;;;;;;;;;;;;;18.51;100.00;101397.41;5135958;27;20023;-36
2023/09/13 06:13:29;;;;;;;32.25;26.63;;;;;;;18.45;100.00;101392.22;5135770;27;20408;-35
2023/09/13 06:15:54;;;;;;;;;;;;;;;18.51;100.00;101394.69;5135616;27;20023;-35
2023/09/13 06:18:20;;;;;;;30.73;26.33;;;;;;;18.38;100.00;101381.50;5135086;27;19907;-36
2023/09/13 06:20:45;;;;;;;;;;;;;;;18.56;100.00;101404.00;5135557;27;20260;-37
2023/09/13 06:23:39;;;;;;;32.22;25.52;;;;;;;18.51;100.00;101416.59;5134808;27;19903;-37
2023/09/13 06:26:05;;;;;;;31.45;26.13;;;;;;;18.43;100.00;101408.88;5134681;27;20458;-37
2023/09/13 06:28:31;;;;;;;;;;;;;;;18.58;100.00;101419.06;5135661;27;20084;-37
2023/09/13 06:30:58;;;;;;;37.33;26.23;;;;;;;18.50;100.00;101428.66;5134997;27;19926;-37
2023/09/13 06:33:24;;;;;;;30.35;25.67;;;;;;;18.50;100.00;101427.81;5135719;27;20110;-37
2023/09/13 06:35:50;;;;;;;31.13;24.58;;;;;;;18.48;100.00;101419.84;5134931;27;20049;-36
2023/09/13 06:38:15;;;;;;;;;;;;;;;18.65;100.00;101429.78;5135793;27;20031;-37
2023/09/13 06:40:42;;;;;;;28.23;23.42;;;;;;;18.60;100.00;101435.25;5134806;27;19911;-36
2023/09/13 06:43:09;;;;;;;29.60;22.52;;;;;;;18.59;100.00;101431.66;5135597;27;20018;-36
2023/09/13 06:45:34;;;;;;;26.83;22.10;;;;;;;18.64;100.00;101428.97;5135304;27;20028;-36
2023/09/13 06:47:59;;;;;;;;;;;;;;;18.76;100.00;101437.75;5134859;27;20070;-36
2023/09/13 06:50:25;;;;;;;28.27;21.58;;;;;;;18.71;100.00;101426.78;5134618;27;19908;-36
2023/09/13 06:52:50;;;;;;;26.67;22.70;;;;;;;18.83;100.00;101436.66;5134947;27;20027;-36
2023/09/13 06:55:16;;;;;;;26.15;22.13;;;;;;;18.80;100.00;101423.53;5134959;27;20019;-36
2023/09/13 06:57:41;;;;;;;;;;;;;;;19.07;100.00;101443.28;5135027;27;20051;-36
2023/09/13 07:00:10;;;;;;;25.58;21.08;;;;;;;18.97;100.00;101448.75;5134571;27;19907;-36
2023/09/13 07:02:35;;;;;;;26.40;21.00;;;;;;;19.07;100.00;101454.22;5134806;27;20530;-36
2023/09/13 07:05:00;;;;;;;;;;;;;;;19.22;100.00;101443.28;5134947;28;20030;-36
2023/09/13 07:07:26;;;;;;;20.67;18.42;;;;;;;19.20;100.00;101445.47;5134783;28;20339;-36
2023/09/13 07:09:52;;;;;;;23.38;18.88;;;;;;;19.14;100.00;101449.31;5134466;27;20019;-36
2023/09/13 07:12:17;;;;;;;23.30;19.02;;;;;;;19.16;100.00;101455.34;5134472;28;20034;-36
2023/09/13 07:14:42;;;;;;;23.48;19.25;;;;;;;19.19;100.00;101463.03;5134153;27;20027;-36
2023/09/13 07:17:08;;;;;;;21.58;19.10;;;;;;;19.18;100.00;101463.28;5134272;28;20027;-36
2023/09/13 07:19:34;;;;;;;20.48;17.90;;;;;;;19.14;100.00;101470.44;5136153;27;20015;-36
2023/09/13 07:22:00;;;;;;;20.98;18.42;;;;;;;19.16;100.00;101476.44;5139132;27;20103;-36
2023/09/13 07:24:25;;;;;;;18.83;16.80;;;;;;;19.15;100.00;101472.88;5139302;27;20023;-36
2023/09/13 07:26:51;;;;;;;20.25;18.15;;;;;;;19.08;100.00;101466.88;5138515;27;20576;-36
2023/09/13 07:29:18;;;;;;;21.10;16.75;;;;;;;19.10;100.00;101491.25;5138653;27;20431;-37
2023/09/13 07:31:43;;;;;;;12.90;9.55;;;;;;;18.76;100.00;101494.47;5138767;27;20027;-36
2023/09/13 07:34:08;;;;;;;;;;;;;;;18.85;100.00;101506.56;5138754;27;20015;-36
2023/09/13 07:36:34;;;;;;;7.90;5.73;;;;;;;18.61;100.00;101506.19;5138574;27;19903;-36
2023/09/13 07:39:00;;;;;;;;;;;;;;;18.57;100.00;101513.28;5138267;27;20325;-36
2023/09/13 07:41:26;;;;;;;6.13;3.08;;;;;;;18.32;100.00;101513.19;5138206;27;19914;-36
2023/09/13 07:43:51;;;;;;;5.47;3.00;;;;;;;18.34;100.00;101516.47;5137862;27;20555;-36
2023/09/13 07:46:16;;;;;;;;;;;;;;;18.46;100.00;101522.56;5138531;27;20015;-36
2023/09/13 07:48:42;;;;;;;2.53;1.10;;;;;;;18.01;100.00;101524.78;5138862;27;19963;-36
2023/09/13 07:51:07;;;;;;;;;;;;;;;18.16;100.00;101532.25;5138965;27;20356;-36
2023/09/13 07:53:32;;;;;;;2.47;0.70;;;;;;;17.92;100.00;101540.03;5138255;27;19907;-37
2023/09/13 07:55:59;;;;;;;1.38;0.80;;;;;;;17.85;100.00;101547.63;5137657;27;20463;-36
2023/09/13 07:58:25;;;;;;;1.30;0.63;;;;;;;17.85;100.00;101541.34;5138089;27;20412;-36
2023/09/13 08:00:50;;;;;;;;;;;;;;;17.87;100.00;101561.06;5138199;27;20031;-36
2023/09/13 08:03:15;;;;;;;1.23;0.60;;;;;;;17.78;100.00;101562.66;5137468;27;19908;-36
2023/09/13 08:05:45;;;;;;;;;;;;;;;17.82;100.00;101561.03;5138420;27;20031;-36
2023/09/13 08:08:11;;;;;;;1.77;0.80;;;;;;;17.62;100.00;101558.94;5138009;27;19914;-36
2023/09/13 08:10:40;;;;;;;;;;;;;;;17.72;100.00;101570.78;5137808;27;20023;-36
2023/09/13 08:13:06;;;;;;;1.23;0.70;;;;;;;17.52;100.00;101567.88;5137966;27;19951;-36
2023/09/13 08:15:31;;;;;;;;;;;;;;;17.72;100.00;101581.72;5137984;27;20043;-36
2023/09/13 08:17:56;;;;;;;3.90;1.07;;;;;;;17.62;100.00;101580.81;5137731;27;19911;-36
2023/09/13 08:20:21;;;;;;;;;;;;;;;17.82;100.00;101596.59;5137944;27;20268;-36
2023/09/13 08:22:47;;;;;;;1.20;0.60;;;;;;;17.77;100.00;101593.81;5137476;27;20331;-36
2023/09/13 08:25:12;;;;;;;;;;;;;;;17.72;100.00;101606.34;5137471;27;20023;-36
2023/09/13 08:27:38;;;;;;;1.30;0.40;;;;;;;17.66;100.00;101607.34;5137702;27;19904;-37
2023/09/13 08:30:04;;;;;;;;;;;;;;;17.73;100.00;101612.66;5136906;27;20265;-37
2023/09/13 08:32:29;;;;;;;1.10;0.40;;;;;;;17.59;100.00;101614.97;5138073;27;19910;-36
2023/09/13 08:34:55;;;;;;;1.40;0.47;;;;;;;17.69;100.00;101628.72;5137415;27;20053;-36
2023/09/13 08:37:21;;;;;;;1.05;0.68;;;;;;;17.75;100.00;101630.44;5136787;27;20046;-36
2023/09/13 08:39:46;;;;;;;;;;;;;;;18.01;100.00;101634.25;5138109;27;20061;-36
2023/09/13 08:42:12;;;;;;;3.50;0.70;;;;;;;18.04;100.00;101641.09;5137100;27;19981;-36
2023/09/13 08:44:38;;;;;;;;;;;;;;;18.22;100.00;101646.16;5137958;27;20038;-36
2023/09/13 08:47:08;;;;;;;1.50;0.65;;;;;;;18.17;100.00;101653.53;5137853;27;19998;-36
2023/09/13 08:49:35;;;;;;;1.48;0.55;;;;;;;18.14;100.00;101657.59;5136828;27;20107;-36
2023/09/13 08:52:02;;;;;;;1.50;0.60;;;;;;;18.31;100.00;101656.63;5136507;27;20463;-36
2023/09/13 08:54:29;;;;;;;0.73;0.50;;;;;;;17.86;100.00;101677.91;5136743;27;20058;-36
2023/09/13 08:56:56;;;;;;;1.27;0.50;;;;;;;17.82;100.00;101689.63;5137375;27;20023;-36
2023/09/13 08:59:21;;;;;;;1.35;0.60;;;;;;;17.64;100.00;101694.31;5136714;27;20382;-36
2023/09/13 09:01:48;;;;;;;;;;;;;;;17.88;100.00;101692.13;5137111;27;20034;-36
2023/09/13 09:04:16;;;;;;;1.23;0.60;;;;;;;17.91;100.00;101698.97;5136607;27;19920;-36
2023/09/13 09:06:42;;;;;;;3.65;0.60;;;;;;;17.91;100.00;101704.44;5136391;27;20130;-36
2023/09/13 09:09:08;;;;;;;;;;;;;;;17.94;100.00;101703.94;5137139;27;20031;-36
2023/09/13 09:11:36;;;;;;;2.03;0.80;;;;;;;17.85;100.00;101709.06;5136304;27;20375;-36
2023/09/13 09:14:02;;;;;;;1.10;0.60;;;;;;;17.93;100.00;101713.25;5136692;27;20023;-36
2023/09/13 09:16:30;;;;;;;2.45;0.50;;;;;;;18.07;100.00;101719.94;5136950;27;20438;-36
2023/09/13 09:18:58;;;;;;;1.88;0.65;;;;;;;17.92;100.00;101708.88;5136580;27;20408;-36
2023/09/13 09:21:25;;;;;;;2.03;0.80;;;;;;;18.06;100.00;101712.84;5135910;27;20455;-36
2023/09/13 09:23:50;;;;;;;2.50;0.70;;;;;;;17.85;100.00;101724.66;5136805;27;20421;-36
2023/09/13 09:26:16;;;;;;;;;;;;;;;17.98;100.00;101718.78;5136559;27;20019;-36
2023/09/13 09:28:42;;;;;;;4.00;0.73;;;;;;;17.91;100.00;101712.66;5135898;27;19993;-36
2023/09/13 09:31:10;;;;;;;1.17;0.60;;;;;;;17.84;100.00;101717.53;5136279;27;20261;-36
2023/09/13 09:33:38;;;;;;;1.35;0.60;;;;;;;17.97;100.00;101719.84;5135973;27;20447;-36
2023/09/13 09:36:03;;;;;;;1.75;0.77;;;;;;;18.03;100.00;101740.72;5135912;27;20118;-36
2023/09/13 09:38:29;;;;;;;;;;;;;;;18.17;100.00;101741.13;5137163;27;20106;-36
2023/09/13 09:41:02;;;;;;;1.77;0.60;;;;;;;17.89;100.00;101729.34;5135755;27;19907;-37
2023/09/13 09:43:29;;;;;;;1.73;0.60;;;;;;;17.89;100.00;101744.94;5135128;27;20019;-36
2023/09/13 09:45:54;;;;;;;1.55;0.85;;;;;;;18.09;100.00;101734.19;5135387;27;20022;-36
2023/09/13 09:48:20;;;;;;;;;;;;;;;18.25;100.00;101737.88;5136465;27;20027;-36
2023/09/13 09:50:47;;;;;;;2.75;0.85;;;;;;;18.07;100.00;101741.03;5135332;27;20366;-37
2023/09/13 09:53:13;;;;;;;3.90;0.80;;;;;;;18.16;100.00;101737.56;5135614;27;20076;-36
2023/09/13 09:55:39;;;;;;;2.38;1.10;;;;;;;18.51;100.00;101744.41;5135238;27;20023;-36
2023/09/13 09:58:05;;;;;;;1.75;0.82;;;;;;;18.68;100.00;101750.59;5136234;27;20047;-36
2023/09/13 10:00:30;;;;;;;;;;;;;;;18.75;100.00;101753.94;5136224;27;20356;-36
2023/09/13 10:02:56;;;;;;;2.35;1.05;;;;;;;18.61;100.00;101749.13;5135454;27;20235;-36
2023/09/13 10:05:21;;;;;;;2.00;0.90;;;;;;;18.73;100.00;101756.09;5135101;27;20128;-36
2023/09/13 10:07:51;;;;;;;2.38;0.80;;;;;;;18.70;100.00;101751.16;5135093;27;20046;-36
2023/09/13 10:10:28;;;;;;;0.98;0.60;;;;;;;19.12;100.00;101753.03;5135203;27;20118;-36
2023/09/13 10:12:54;;;;;;;1.75;0.80;;;;;;;19.26;100.00;101754.22;5135832;27;20019;-36
2023/09/13 10:15:20;;;;;;;1.77;0.80;;;;;;;19.31;100.00;101756.16;5134911;27;20015;-36
2023/09/13 10:17:48;;;;;;;2.53;0.88;;;;;;;19.63;100.00;101757.97;5135053;27;20393;-36
2023/09/13 10:20:17;;;;;;;1.90;0.73;;;;;;;19.49;100.00;101768.59;5135706;27;20021;-36
2023/09/13 10:22:45;;;;;;;1.65;0.70;;;;;;;19.73;100.00;101772.53;5135405;27;20023;-36
2023/09/13 10:25:14;;;;;;;2.70;0.80;;;;;;;19.88;100.00;101792.88;5135082;27;20023;-36
2023/09/13 10:27:43;;;;;;;1.30;0.75;;;;;;;19.73;100.00;101789.00;5135627;27;20030;-36
2023/09/13 10:30:10;;;;;;;2.90;0.80;;;;;;;19.92;100.00;101791.25;5135449;27;20034;-37
2023/09/13 10:32:47;;;;;;;1.83;0.68;;;;;;;19.84;100.00;101794.53;5135534;27;20031;-36
2023/09/13 10:35:15;;;;;;;2.10;0.90;;;;;;;19.82;100.00;101797.53;5134826;27;20023;-36
2023/09/13 10:37:49;;;;;;;1.27;0.77;;;;;;;19.77;100.00;101792.88;5134866;27;20015;-36
2023/09/13 10:40:23;;;;;;;2.28;0.93;;;;;;;19.77;100.00;101798.34;5135019;27;20019;-36
2023/09/13 10:42:49;;;;;;;1.85;0.77;;;;;;;19.63;100.00;101802.69;5135637;27;20381;-36
2023/09/13 10:45:18;;;;;;;1.50;0.73;;;;;;;19.54;100.00;101809.75;5134425;27;20020;-36
2023/09/13 10:47:49;;;;;;;1.13;0.60;;;;;;;19.63;100.00;101804.59;5134723;27;20072;-36
2023/09/13 10:50:16;;;;;;;1.20;0.50;;;;;;;19.54;100.00;101809.75;5135244;27;20023;-36
2023/09/13 10:52:43;;;;;;;2.75;0.98;;;;;;;19.56;100.00;101808.38;5134526;27;20045;-36
2023/09/13 10:55:11;;;;;;;2.67;0.70;;;;;;;19.72;100.00;101809.31;5134646;27;20054;-36
2023/09/13 10:57:37;;;;;;;1.98;0.80;;;;;;;19.74;100.00;101809.03;5134545;27;20072;-36
2023/09/13 11:00:12;;;;;;;1.13;0.55;;;;;;;19.84;100.00;101825.53;5134374;27;20440;-36
2023/09/13 11:02:43;;;;;;;2.60;1.13;;;;;;;20.06;100.00;101808.88;5134490;27;20080;-36
2023/09/13 11:05:13;;;;;;;1.70;0.95;;;;;;;20.17;100.00;101815.19;5134652;27;20015;-36
2023/09/13 11:07:48;;;;;;;1.65;0.70;;;;;;;19.95;100.00;101818.97;5135294;27;20106;-36
2023/09/13 11:10:18;;;;;;;2.55;0.70;;;;;;;19.82;100.00;101826.91;5135379;27;20117;-36
2023/09/13 11:12:51;;;;;;;1.83;0.80;;;;;;;19.75;100.00;101832.63;5135203;27;20023;-36
2023/09/13 11:15:22;;;;;;;1.02;0.50;;;;;;;19.44;100.00;101832.47;5134616;27;20028;-36
2023/09/13 11:17:47;;;;;;;1.45;0.80;;;;;;;19.43;100.00;101838.22;5134203;27;20432;-37
2023/09/13 11:20:28;;;;;;;2.15;0.80;;;;;;;19.37;100.00;101839.28;5133948;27;20062;-37